sensor_id;sensor_type;location;lat;lon;timestamp;P1;durP1;ratioP1;P2;durP2;ratioP2
66353;SDS011;53150;48.296;16.452;2022-07-18T00:01:42;4.65;;;1.33;;
66353;SDS011;53150;48.296;16.452;2022-07-18T00:04:08;3.90;;;1.35;;
66353;SDS011;53150;48.296;16.452;2022-07-18T00:06:34;5.78;;;1.42;;
66353;SDS011;53150;48.296;16.452;2022-07-18T00:09:01;3.25;;;1.70;;
66353;SDS011;53150;48.296;16.452;2022-07-18T00:11:27;3.85;;;1.40;;
66353;SDS011;53150;48.296;16.452;2022-07-18T00:13:53;3.85;;;1.23;;
66353;SDS011;53150;48.296;16.452;2022-07-18T00:16:20;4.93;;;1.30;;
66353;SDS011;53150;48.296;16.452;2022-07-18T00:18:47;4.20;;;1.30;;
66353;SDS011;53150;48.296;16.452;2022-07-18T00:21:14;3.22;;;1.42;;
66353;SDS011;53150;48.296;16.452;2022-07-18T00:23:40;3.10;;;1.33;;
66353;SDS011;53150;48.296;16.452;2022-07-18T00:26:06;4.43;;;1.40;;
66353;SDS011;53150;48.296;16.452;2022-07-18T00:28:32;5.03;;;1.58;;
66353;SDS011;53150;48.296;16.452;2022-07-18T00:30:58;4.30;;;1.40;;
66353;SDS011;53150;48.296;16.452;2022-07-18T00:33:24;3.75;;;1.42;;
66353;SDS011;53150;48.296;16.452;2022-07-18T00:35:50;3.17;;;1.50;;
66353;SDS011;53150;48.296;16.452;2022-07-18T00:38:16;4.32;;;1.60;;
66353;SDS011;53150;48.296;16.452;2022-07-18T00:40:42;3.92;;;1.35;;
66353;SDS011;53150;48.296;16.452;2022-07-18T00:43:11;5.90;;;1.85;;
66353;SDS011;53150;48.296;16.452;2022-07-18T00:45:37;3.28;;;1.50;;
66353;SDS011;53150;48.296;16.452;2022-07-18T00:48:07;4.50;;;1.40;;
66353;SDS011;53150;48.296;16.452;2022-07-18T00:50:33;5.43;;;1.67;;
66353;SDS011;53150;48.296;16.452;2022-07-18T00:53:00;3.55;;;1.40;;
66353;SDS011;53150;48.296;16.452;2022-07-18T00:55:26;5.40;;;1.52;;
66353;SDS011;53150;48.296;16.452;2022-07-18T00:57:52;3.80;;;1.70;;
66353;SDS011;53150;48.296;16.452;2022-07-18T01:00:18;3.67;;;1.48;;
66353;SDS011;53150;48.296;16.452;2022-07-18T01:03:03;2.92;;;1.33;;
66353;SDS011;53150;48.296;16.452;2022-07-18T01:05:29;4.05;;;1.33;;
66353;SDS011;53150;48.296;16.452;2022-07-18T01:07:55;3.83;;;1.60;;
66353;SDS011;53150;48.296;16.452;2022-07-18T01:10:21;4.75;;;1.60;;
66353;SDS011;53150;48.296;16.452;2022-07-18T01:12:47;3.75;;;1.52;;
66353;SDS011;53150;48.296;16.452;2022-07-18T01:15:13;4.20;;;1.80;;
66353;SDS011;53150;48.296;16.452;2022-07-18T01:17:39;7.22;;;1.50;;
66353;SDS011;53150;48.296;16.452;2022-07-18T01:20:05;4.88;;;1.85;;
66353;SDS011;53150;48.296;16.452;2022-07-18T01:22:32;6.60;;;1.85;;
66353;SDS011;53150;48.296;16.452;2022-07-18T01:24:58;4.03;;;1.63;;
66353;SDS011;53150;48.296;16.452;2022-07-18T01:27:24;3.88;;;1.55;;
66353;SDS011;53150;48.296;16.452;2022-07-18T01:29:51;3.45;;;1.60;;
66353;SDS011;53150;48.296;16.452;2022-07-18T01:32:18;4.00;;;1.45;;
66353;SDS011;53150;48.296;16.452;2022-07-18T01:34:45;4.07;;;1.42;;
66353;SDS011;53150;48.296;16.452;2022-07-18T01:37:11;3.45;;;1.60;;
66353;SDS011;53150;48.296;16.452;2022-07-18T01:39:38;3.15;;;1.33;;
66353;SDS011;53150;48.296;16.452;2022-07-18T01:42:06;4.90;;;1.60;;
66353;SDS011;53150;48.296;16.452;2022-07-18T01:44:32;3.53;;;1.65;;
66353;SDS011;53150;48.296;16.452;2022-07-18T01:46:58;3.75;;;1.60;;
66353;SDS011;53150;48.296;16.452;2022-07-18T01:49:25;3.58;;;1.40;;
66353;SDS011;53150;48.296;16.452;2022-07-18T01:51:52;3.78;;;1.60;;
66353;SDS011;53150;48.296;16.452;2022-07-18T01:54:24;4.20;;;1.50;;
66353;SDS011;53150;48.296;16.452;2022-07-18T01:56:50;3.40;;;1.70;;
66353;SDS011;53150;48.296;16.452;2022-07-18T01:59:16;4.40;;;1.73;;
66353;SDS011;53150;48.296;16.452;2022-07-18T02:01:43;4.32;;;1.65;;
66353;SDS011;53150;48.296;16.452;2022-07-18T02:04:09;4.53;;;1.80;;
66353;SDS011;53150;48.296;16.452;2022-07-18T02:06:35;4.50;;;1.70;;
66353;SDS011;53150;48.296;16.452;2022-07-18T02:09:02;3.50;;;1.50;;
66353;SDS011;53150;48.296;16.452;2022-07-18T02:11:28;4.20;;;1.50;;
66353;SDS011;53150;48.296;16.452;2022-07-18T02:13:54;3.90;;;1.60;;
66353;SDS011;53150;48.296;16.452;2022-07-18T02:16:20;5.28;;;1.98;;
66353;SDS011;53150;48.296;16.452;2022-07-18T02:18:46;3.70;;;1.70;;
66353;SDS011;53150;48.296;16.452;2022-07-18T02:21:12;4.07;;;1.60;;
66353;SDS011;53150;48.296;16.452;2022-07-18T02:23:39;5.22;;;1.70;;
66353;SDS011;53150;48.296;16.452;2022-07-18T02:26:05;4.18;;;1.80;;
66353;SDS011;53150;48.296;16.452;2022-07-18T02:28:31;4.82;;;1.80;;
66353;SDS011;53150;48.296;16.452;2022-07-18T02:30:57;6.32;;;1.90;;
66353;SDS011;53150;48.296;16.452;2022-07-18T02:33:23;3.88;;;1.52;;
66353;SDS011;53150;48.296;16.452;2022-07-18T02:35:49;4.07;;;1.80;;
66353;SDS011;53150;48.296;16.452;2022-07-18T02:38:15;3.80;;;1.63;;
66353;SDS011;53150;48.296;16.452;2022-07-18T02:40:41;3.78;;;1.77;;
66353;SDS011;53150;48.296;16.452;2022-07-18T02:43:08;4.47;;;1.90;;
66353;SDS011;53150;48.296;16.452;2022-07-18T02:45:34;5.88;;;2.20;;
66353;SDS011;53150;48.296;16.452;2022-07-18T02:48:00;5.10;;;1.92;;
66353;SDS011;53150;48.296;16.452;2022-07-18T02:50:26;5.18;;;2.00;;
66353;SDS011;53150;48.296;16.452;2022-07-18T02:52:52;4.85;;;2.22;;
66353;SDS011;53150;48.296;16.452;2022-07-18T02:55:18;3.60;;;1.70;;
66353;SDS011;53150;48.296;16.452;2022-07-18T02:57:45;4.72;;;1.98;;
66353;SDS011;53150;48.296;16.452;2022-07-18T03:00:13;5.22;;;1.85;;
66353;SDS011;53150;48.296;16.452;2022-07-18T03:02:39;4.72;;;2.05;;
66353;SDS011;53150;48.296;16.452;2022-07-18T03:05:07;4.20;;;2.08;;
66353;SDS011;53150;48.296;16.452;2022-07-18T03:07:33;13.60;;;2.55;;
66353;SDS011;53150;48.296;16.452;2022-07-18T03:09:59;4.75;;;2.42;;
66353;SDS011;53150;48.296;16.452;2022-07-18T03:12:25;5.28;;;2.55;;
66353;SDS011;53150;48.296;16.452;2022-07-18T03:14:51;3.80;;;1.95;;
66353;SDS011;53150;48.296;16.452;2022-07-18T03:17:17;6.22;;;2.40;;
66353;SDS011;53150;48.296;16.452;2022-07-18T03:19:43;4.32;;;2.33;;
66353;SDS011;53150;48.296;16.452;2022-07-18T03:22:09;5.40;;;2.28;;
66353;SDS011;53150;48.296;16.452;2022-07-18T03:24:35;5.78;;;2.70;;
66353;SDS011;53150;48.296;16.452;2022-07-18T03:27:01;5.45;;;2.10;;
66353;SDS011;53150;48.296;16.452;2022-07-18T03:29:27;4.15;;;2.15;;
66353;SDS011;53150;48.296;16.452;2022-07-18T03:31:53;5.95;;;2.10;;
66353;SDS011;53150;48.296;16.452;2022-07-18T03:34:19;4.43;;;1.80;;
66353;SDS011;53150;48.296;16.452;2022-07-18T03:36:45;4.07;;;2.15;;
66353;SDS011;53150;48.296;16.452;2022-07-18T03:39:11;5.10;;;2.25;;
66353;SDS011;53150;48.296;16.452;2022-07-18T03:41:37;5.22;;;2.20;;
66353;SDS011;53150;48.296;16.452;2022-07-18T03:44:04;5.75;;;2.42;;
66353;SDS011;53150;48.296;16.452;2022-07-18T03:46:30;4.32;;;1.80;;
66353;SDS011;53150;48.296;16.452;2022-07-18T03:48:57;4.53;;;1.90;;
66353;SDS011;53150;48.296;16.452;2022-07-18T03:51:23;4.70;;;2.10;;
66353;SDS011;53150;48.296;16.452;2022-07-18T03:53:49;4.68;;;2.10;;
66353;SDS011;53150;48.296;16.452;2022-07-18T03:56:15;3.80;;;1.73;;
66353;SDS011;53150;48.296;16.452;2022-07-18T03:58:41;4.22;;;2.03;;
66353;SDS011;53150;48.296;16.452;2022-07-18T04:01:07;5.45;;;2.30;;
66353;SDS011;53150;48.296;16.452;2022-07-18T04:03:33;5.50;;;2.30;;
66353;SDS011;53150;48.296;16.452;2022-07-18T04:06:00;4.40;;;2.08;;
66353;SDS011;53150;48.296;16.452;2022-07-18T04:08:26;5.90;;;2.40;;
66353;SDS011;53150;48.296;16.452;2022-07-18T04:10:52;10.77;;;3.03;;
66353;SDS011;53150;48.296;16.452;2022-07-18T04:13:18;5.30;;;2.70;;
66353;SDS011;53150;48.296;16.452;2022-07-18T04:15:44;4.97;;;2.35;;
66353;SDS011;53150;48.296;16.452;2022-07-18T04:18:10;4.95;;;2.25;;
66353;SDS011;53150;48.296;16.452;2022-07-18T04:20:36;6.45;;;2.50;;
66353;SDS011;53150;48.296;16.452;2022-07-18T04:23:05;10.13;;;2.75;;
66353;SDS011;53150;48.296;16.452;2022-07-18T04:25:35;6.30;;;2.53;;
66353;SDS011;53150;48.296;16.452;2022-07-18T04:28:02;4.93;;;2.30;;
66353;SDS011;53150;48.296;16.452;2022-07-18T04:30:28;4.05;;;2.30;;
66353;SDS011;53150;48.296;16.452;2022-07-18T04:32:55;4.80;;;2.00;;
66353;SDS011;53150;48.296;16.452;2022-07-18T04:35:21;4.40;;;2.33;;
66353;SDS011;53150;48.296;16.452;2022-07-18T04:37:48;4.72;;;2.20;;
66353;SDS011;53150;48.296;16.452;2022-07-18T04:40:14;7.65;;;2.63;;
66353;SDS011;53150;48.296;16.452;2022-07-18T04:42:43;4.78;;;2.50;;
66353;SDS011;53150;48.296;16.452;2022-07-18T04:45:10;5.85;;;2.58;;
66353;SDS011;53150;48.296;16.452;2022-07-18T04:47:36;6.95;;;2.45;;
66353;SDS011;53150;48.296;16.452;2022-07-18T04:50:05;6.22;;;2.55;;
66353;SDS011;53150;48.296;16.452;2022-07-18T04:52:38;7.35;;;2.67;;
66353;SDS011;53150;48.296;16.452;2022-07-18T04:55:04;5.70;;;2.70;;
66353;SDS011;53150;48.296;16.452;2022-07-18T04:57:33;7.28;;;2.88;;
66353;SDS011;53150;48.296;16.452;2022-07-18T04:59:59;5.93;;;2.55;;
66353;SDS011;53150;48.296;16.452;2022-07-18T05:02:25;4.75;;;2.35;;
66353;SDS011;53150;48.296;16.452;2022-07-18T05:04:52;7.93;;;2.90;;
66353;SDS011;53150;48.296;16.452;2022-07-18T05:07:18;5.53;;;2.67;;
66353;SDS011;53150;48.296;16.452;2022-07-18T05:09:44;6.55;;;2.90;;
66353;SDS011;53150;48.296;16.452;2022-07-18T05:12:10;5.35;;;2.53;;
66353;SDS011;53150;48.296;16.452;2022-07-18T05:14:36;5.38;;;2.30;;
66353;SDS011;53150;48.296;16.452;2022-07-18T05:17:02;5.10;;;2.08;;
66353;SDS011;53150;48.296;16.452;2022-07-18T05:19:28;5.40;;;1.90;;
66353;SDS011;53150;48.296;16.452;2022-07-18T05:21:54;7.22;;;2.53;;
66353;SDS011;53150;48.296;16.452;2022-07-18T05:24:20;6.43;;;2.30;;
66353;SDS011;53150;48.296;16.452;2022-07-18T05:26:46;6.07;;;2.10;;
66353;SDS011;53150;48.296;16.452;2022-07-18T05:29:12;8.65;;;2.45;;
66353;SDS011;53150;48.296;16.452;2022-07-18T05:31:39;8.68;;;2.60;;
66353;SDS011;53150;48.296;16.452;2022-07-18T05:34:05;5.65;;;2.35;;
66353;SDS011;53150;48.296;16.452;2022-07-18T05:36:31;8.75;;;2.40;;
66353;SDS011;53150;48.296;16.452;2022-07-18T05:38:57;7.85;;;2.45;;
66353;SDS011;53150;48.296;16.452;2022-07-18T05:41:23;6.65;;;2.42;;
66353;SDS011;53150;48.296;16.452;2022-07-18T05:43:50;7.18;;;2.50;;
66353;SDS011;53150;48.296;16.452;2022-07-18T05:46:16;8.15;;;2.17;;
66353;SDS011;53150;48.296;16.452;2022-07-18T05:48:41;7.15;;;2.58;;
66353;SDS011;53150;48.296;16.452;2022-07-18T05:51:08;6.85;;;2.53;;
66353;SDS011;53150;48.296;16.452;2022-07-18T05:53:34;4.93;;;1.98;;
66353;SDS011;53150;48.296;16.452;2022-07-18T05:56:00;7.47;;;2.13;;
66353;SDS011;53150;48.296;16.452;2022-07-18T05:58:26;5.43;;;1.83;;
66353;SDS011;53150;48.296;16.452;2022-07-18T06:00:52;6.07;;;1.88;;
66353;SDS011;53150;48.296;16.452;2022-07-18T06:03:19;10.60;;;2.65;;
66353;SDS011;53150;48.296;16.452;2022-07-18T06:05:45;9.13;;;2.30;;
66353;SDS011;53150;48.296;16.452;2022-07-18T06:08:11;6.00;;;1.98;;
66353;SDS011;53150;48.296;16.452;2022-07-18T06:10:37;7.80;;;2.22;;
66353;SDS011;53150;48.296;16.452;2022-07-18T06:13:03;10.90;;;2.33;;
66353;SDS011;53150;48.296;16.452;2022-07-18T06:15:29;11.93;;;2.40;;
66353;SDS011;53150;48.296;16.452;2022-07-18T06:17:55;12.70;;;2.47;;
66353;SDS011;53150;48.296;16.452;2022-07-18T06:20:21;10.70;;;2.70;;
66353;SDS011;53150;48.296;16.452;2022-07-18T06:22:47;10.63;;;2.83;;
66353;SDS011;53150;48.296;16.452;2022-07-18T06:25:13;9.48;;;2.28;;
66353;SDS011;53150;48.296;16.452;2022-07-18T06:27:39;6.95;;;1.80;;
66353;SDS011;53150;48.296;16.452;2022-07-18T06:30:06;7.38;;;2.22;;
66353;SDS011;53150;48.296;16.452;2022-07-18T06:32:34;5.90;;;1.80;;
66353;SDS011;53150;48.296;16.452;2022-07-18T06:35:00;7.13;;;2.08;;
66353;SDS011;53150;48.296;16.452;2022-07-18T06:37:26;5.82;;;1.88;;
66353;SDS011;53150;48.296;16.452;2022-07-18T06:39:52;6.88;;;1.70;;
66353;SDS011;53150;48.296;16.452;2022-07-18T06:42:18;6.20;;;1.77;;
66353;SDS011;53150;48.296;16.452;2022-07-18T06:44:44;6.35;;;1.92;;
66353;SDS011;53150;48.296;16.452;2022-07-18T06:47:10;7.88;;;1.85;;
66353;SDS011;53150;48.296;16.452;2022-07-18T06:49:36;7.70;;;2.22;;
66353;SDS011;53150;48.296;16.452;2022-07-18T06:52:02;6.25;;;2.30;;
66353;SDS011;53150;48.296;16.452;2022-07-18T06:54:28;7.13;;;2.40;;
66353;SDS011;53150;48.296;16.452;2022-07-18T06:56:55;8.38;;;2.42;;
66353;SDS011;53150;48.296;16.452;2022-07-18T06:59:21;5.97;;;2.20;;
66353;SDS011;53150;48.296;16.452;2022-07-18T07:01:48;6.38;;;1.92;;
66353;SDS011;53150;48.296;16.452;2022-07-18T07:04:14;3.70;;;1.40;;
66353;SDS011;53150;48.296;16.452;2022-07-18T07:06:40;3.83;;;1.80;;
66353;SDS011;53150;48.296;16.452;2022-07-18T07:09:06;5.90;;;2.10;;
66353;SDS011;53150;48.296;16.452;2022-07-18T07:11:32;4.70;;;1.88;;
66353;SDS011;53150;48.296;16.452;2022-07-18T07:13:58;4.40;;;1.60;;
66353;SDS011;53150;48.296;16.452;2022-07-18T07:16:24;4.18;;;1.50;;
66353;SDS011;53150;48.296;16.452;2022-07-18T07:18:50;4.47;;;1.50;;
66353;SDS011;53150;48.296;16.452;2022-07-18T07:21:16;6.20;;;1.65;;
66353;SDS011;53150;48.296;16.452;2022-07-18T07:23:42;5.78;;;1.50;;
66353;SDS011;53150;48.296;16.452;2022-07-18T07:26:08;5.22;;;1.60;;
66353;SDS011;53150;48.296;16.452;2022-07-18T07:28:34;5.03;;;1.33;;
66353;SDS011;53150;48.296;16.452;2022-07-18T07:31:00;6.10;;;1.83;;
66353;SDS011;53150;48.296;16.452;2022-07-18T07:33:26;3.75;;;1.38;;
66353;SDS011;53150;48.296;16.452;2022-07-18T07:35:52;4.78;;;1.60;;
66353;SDS011;53150;48.296;16.452;2022-07-18T07:38:18;5.15;;;2.17;;
66353;SDS011;53150;48.296;16.452;2022-07-18T07:40:45;4.15;;;1.70;;
66353;SDS011;53150;48.296;16.452;2022-07-18T07:43:12;3.70;;;1.60;;
66353;SDS011;53150;48.296;16.452;2022-07-18T07:45:39;4.25;;;1.45;;
66353;SDS011;53150;48.296;16.452;2022-07-18T07:48:05;6.63;;;1.65;;
66353;SDS011;53150;48.296;16.452;2022-07-18T07:50:32;5.75;;;2.00;;
66353;SDS011;53150;48.296;16.452;2022-07-18T07:52:58;4.05;;;1.60;;
66353;SDS011;53150;48.296;16.452;2022-07-18T07:55:24;4.88;;;1.55;;
66353;SDS011;53150;48.296;16.452;2022-07-18T07:57:50;4.00;;;1.48;;
66353;SDS011;53150;48.296;16.452;2022-07-18T08:00:16;5.65;;;1.60;;
66353;SDS011;53150;48.296;16.452;2022-07-18T08:02:53;4.93;;;1.38;;
66353;SDS011;53150;48.296;16.452;2022-07-18T08:05:19;6.25;;;1.40;;
66353;SDS011;53150;48.296;16.452;2022-07-18T08:07:45;4.80;;;1.40;;
66353;SDS011;53150;48.296;16.452;2022-07-18T08:10:11;4.30;;;1.30;;
66353;SDS011;53150;48.296;16.452;2022-07-18T08:12:37;7.30;;;1.60;;
66353;SDS011;53150;48.296;16.452;2022-07-18T08:15:03;5.13;;;1.75;;
66353;SDS011;53150;48.296;16.452;2022-07-18T08:17:29;4.30;;;1.40;;
66353;SDS011;53150;48.296;16.452;2022-07-18T08:19:55;6.00;;;1.25;;
66353;SDS011;53150;48.296;16.452;2022-07-18T08:22:22;4.15;;;1.40;;
66353;SDS011;53150;48.296;16.452;2022-07-18T08:24:48;4.32;;;1.20;;
66353;SDS011;53150;48.296;16.452;2022-07-18T08:27:14;6.20;;;1.40;;
66353;SDS011;53150;48.296;16.452;2022-07-18T08:29:41;6.38;;;1.45;;
66353;SDS011;53150;48.296;16.452;2022-07-18T08:32:07;4.70;;;1.20;;
66353;SDS011;53150;48.296;16.452;2022-07-18T08:34:33;4.35;;;1.50;;
66353;SDS011;53150;48.296;16.452;2022-07-18T08:36:59;4.85;;;1.20;;
66353;SDS011;53150;48.296;16.452;2022-07-18T08:39:25;4.68;;;1.40;;
66353;SDS011;53150;48.296;16.452;2022-07-18T08:41:51;4.47;;;1.70;;
66353;SDS011;53150;48.296;16.452;2022-07-18T08:44:17;4.93;;;1.50;;
66353;SDS011;53150;48.296;16.452;2022-07-18T08:46:45;3.88;;;1.27;;
66353;SDS011;53150;48.296;16.452;2022-07-18T08:49:14;5.78;;;1.50;;
66353;SDS011;53150;48.296;16.452;2022-07-18T08:51:40;5.95;;;1.25;;
66353;SDS011;53150;48.296;16.452;2022-07-18T08:54:07;3.20;;;1.33;;
66353;SDS011;53150;48.296;16.452;2022-07-18T08:56:33;3.75;;;1.00;;
66353;SDS011;53150;48.296;16.452;2022-07-18T08:59:02;21.77;;;5.05;;
66353;SDS011;53150;48.296;16.452;2022-07-18T09:01:29;28.75;;;5.10;;
66353;SDS011;53150;48.296;16.452;2022-07-18T09:03:56;6.30;;;1.60;;
66353;SDS011;53150;48.296;16.452;2022-07-18T09:06:45;3.25;;;1.15;;
66353;SDS011;53150;48.296;16.452;2022-07-18T09:09:12;4.25;;;1.33;;
66353;SDS011;53150;48.296;16.452;2022-07-18T09:14:27;3.45;;;1.30;;
66353;SDS011;53150;48.296;16.452;2022-07-18T09:17:00;3.95;;;1.30;;
66353;SDS011;53150;48.296;16.452;2022-07-18T09:19:27;4.45;;;1.30;;
66353;SDS011;53150;48.296;16.452;2022-07-18T09:21:53;4.55;;;1.52;;
66353;SDS011;53150;48.296;16.452;2022-07-18T09:24:19;4.75;;;1.20;;
66353;SDS011;53150;48.296;16.452;2022-07-18T09:26:45;5.78;;;1.15;;
66353;SDS011;53150;48.296;16.452;2022-07-18T09:29:15;4.45;;;1.40;;
66353;SDS011;53150;48.296;16.452;2022-07-18T09:31:50;3.97;;;1.48;;
66353;SDS011;53150;48.296;16.452;2022-07-18T09:34:31;5.88;;;1.67;;
66353;SDS011;53150;48.296;16.452;2022-07-18T09:36:57;5.78;;;1.52;;
66353;SDS011;53150;48.296;16.452;2022-07-18T09:39:23;6.03;;;1.65;;
66353;SDS011;53150;48.296;16.452;2022-07-18T09:41:49;5.93;;;1.55;;
66353;SDS011;53150;48.296;16.452;2022-07-18T09:44:16;5.78;;;1.40;;
66353;SDS011;53150;48.296;16.452;2022-07-18T09:46:58;3.78;;;1.30;;
66353;SDS011;53150;48.296;16.452;2022-07-18T09:49:28;5.35;;;1.48;;
66353;SDS011;53150;48.296;16.452;2022-07-18T09:52:04;5.32;;;1.42;;
66353;SDS011;53150;48.296;16.452;2022-07-18T09:54:35;5.18;;;1.40;;
66353;SDS011;53150;48.296;16.452;2022-07-18T09:57:01;4.60;;;1.52;;
66353;SDS011;53150;48.296;16.452;2022-07-18T09:59:27;3.70;;;1.25;;
66353;SDS011;53150;48.296;16.452;2022-07-18T10:01:53;3.25;;;1.40;;
66353;SDS011;53150;48.296;16.452;2022-07-18T10:04:19;4.28;;;1.40;;
66353;SDS011;53150;48.296;16.452;2022-07-18T10:06:45;6.35;;;2.15;;
66353;SDS011;53150;48.296;16.452;2022-07-18T10:09:11;7.32;;;1.38;;
66353;SDS011;53150;48.296;16.452;2022-07-18T10:11:38;3.20;;;1.10;;
66353;SDS011;53150;48.296;16.452;2022-07-18T10:14:04;3.47;;;1.85;;
66353;SDS011;53150;48.296;16.452;2022-07-18T10:16:30;4.30;;;1.55;;
66353;SDS011;53150;48.296;16.452;2022-07-18T10:18:56;3.58;;;1.13;;
66353;SDS011;53150;48.296;16.452;2022-07-18T10:21:24;3.70;;;1.33;;
66353;SDS011;53150;48.296;16.452;2022-07-18T10:23:50;4.13;;;1.20;;
66353;SDS011;53150;48.296;16.452;2022-07-18T10:26:18;5.15;;;1.27;;
66353;SDS011;53150;48.296;16.452;2022-07-18T10:31:34;3.13;;;1.20;;
66353;SDS011;53150;48.296;16.452;2022-07-18T10:36:38;5.07;;;1.85;;
66353;SDS011;53150;48.296;16.452;2022-07-18T10:39:05;3.67;;;1.25;;
66353;SDS011;53150;48.296;16.452;2022-07-18T10:41:32;4.85;;;1.58;;
66353;SDS011;53150;48.296;16.452;2022-07-18T10:43:58;5.20;;;1.35;;
66353;SDS011;53150;48.296;16.452;2022-07-18T10:46:24;4.25;;;1.60;;
66353;SDS011;53150;48.296;16.452;2022-07-18T10:49:10;6.28;;;1.48;;
66353;SDS011;53150;48.296;16.452;2022-07-18T10:51:36;2.72;;;1.10;;
66353;SDS011;53150;48.296;16.452;2022-07-18T10:54:06;4.63;;;1.20;;
66353;SDS011;53150;48.296;16.452;2022-07-18T10:59:15;2.92;;;1.00;;
66353;SDS011;53150;48.296;16.452;2022-07-18T11:02:14;4.28;;;1.45;;
66353;SDS011;53150;48.296;16.452;2022-07-18T11:04:34;5.28;;;1.75;;
66353;SDS011;53150;48.296;16.452;2022-07-18T11:07:06;4.53;;;1.10;;
66353;SDS011;53150;48.296;16.452;2022-07-18T11:09:43;5.50;;;1.10;;
66353;SDS011;53150;48.296;16.452;2022-07-18T11:12:28;3.78;;;1.20;;
66353;SDS011;53150;48.296;16.452;2022-07-18T11:22:59;4.20;;;1.67;;
66353;SDS011;53150;48.296;16.452;2022-07-18T11:25:27;4.25;;;1.10;;
66353;SDS011;53150;48.296;16.452;2022-07-18T11:27:53;2.90;;;1.13;;
66353;SDS011;53150;48.296;16.452;2022-07-18T11:30:20;4.80;;;1.30;;
66353;SDS011;53150;48.296;16.452;2022-07-18T11:32:47;4.32;;;1.20;;
66353;SDS011;53150;48.296;16.452;2022-07-18T11:35:13;3.58;;;1.10;;
66353;SDS011;53150;48.296;16.452;2022-07-18T11:37:46;4.65;;;1.33;;
66353;SDS011;53150;48.296;16.452;2022-07-18T11:40:12;3.03;;;1.05;;
66353;SDS011;53150;48.296;16.452;2022-07-18T11:42:41;2.75;;;1.00;;
66353;SDS011;53150;48.296;16.452;2022-07-18T11:45:09;3.97;;;1.10;;
66353;SDS011;53150;48.296;16.452;2022-07-18T11:47:39;3.88;;;1.00;;
66353;SDS011;53150;48.296;16.452;2022-07-18T11:50:05;4.15;;;1.33;;
66353;SDS011;53150;48.296;16.452;2022-07-18T11:52:31;3.30;;;1.23;;
66353;SDS011;53150;48.296;16.452;2022-07-18T11:54:58;4.05;;;1.00;;
66353;SDS011;53150;48.296;16.452;2022-07-18T11:57:26;4.07;;;1.08;;
66353;SDS011;53150;48.296;16.452;2022-07-18T11:59:53;2.60;;;0.90;;
66353;SDS011;53150;48.296;16.452;2022-07-18T12:05:03;6.25;;;1.30;;
66353;SDS011;53150;48.296;16.452;2022-07-18T12:07:30;3.33;;;1.17;;
66353;SDS011;53150;48.296;16.452;2022-07-18T12:09:56;6.75;;;1.40;;
66353;SDS011;53150;48.296;16.452;2022-07-18T12:12:22;2.92;;;0.80;;
66353;SDS011;53150;48.296;16.452;2022-07-18T12:14:55;2.85;;;1.00;;
66353;SDS011;53150;48.296;16.452;2022-07-18T12:17:22;4.25;;;1.20;;
66353;SDS011;53150;48.296;16.452;2022-07-18T12:19:48;3.25;;;1.00;;
66353;SDS011;53150;48.296;16.452;2022-07-18T12:22:14;13.10;;;3.17;;
66353;SDS011;53150;48.296;16.452;2022-07-18T12:25:01;3.45;;;1.00;;
66353;SDS011;53150;48.296;16.452;2022-07-18T12:32:22;3.22;;;1.08;;
66353;SDS011;53150;48.296;16.452;2022-07-18T12:35:02;2.95;;;1.02;;
66353;SDS011;53150;48.296;16.452;2022-07-18T12:37:29;5.80;;;1.10;;
66353;SDS011;53150;48.296;16.452;2022-07-18T12:39:56;3.95;;;1.05;;
66353;SDS011;53150;48.296;16.452;2022-07-18T12:42:30;3.17;;;1.10;;
66353;SDS011;53150;48.296;16.452;2022-07-18T12:44:56;2.78;;;1.10;;
66353;SDS011;53150;48.296;16.452;2022-07-18T12:47:22;2.58;;;1.05;;
66353;SDS011;53150;48.296;16.452;2022-07-18T12:49:48;5.43;;;1.67;;
66353;SDS011;53150;48.296;16.452;2022-07-18T12:52:14;3.72;;;1.42;;
66353;SDS011;53150;48.296;16.452;2022-07-18T12:54:40;4.25;;;1.10;;
66353;SDS011;53150;48.296;16.452;2022-07-18T12:57:06;4.45;;;1.20;;
66353;SDS011;53150;48.296;16.452;2022-07-18T12:59:32;3.13;;;1.00;;
66353;SDS011;53150;48.296;16.452;2022-07-18T13:01:58;3.42;;;1.20;;
66353;SDS011;53150;48.296;16.452;2022-07-18T13:04:24;5.30;;;1.20;;
66353;SDS011;53150;48.296;16.452;2022-07-18T13:06:50;4.60;;;1.63;;
66353;SDS011;53150;48.296;16.452;2022-07-18T13:09:16;3.67;;;0.90;;
66353;SDS011;53150;48.296;16.452;2022-07-18T13:11:42;3.03;;;0.90;;
66353;SDS011;53150;48.296;16.452;2022-07-18T13:14:12;3.17;;;1.50;;
66353;SDS011;53150;48.296;16.452;2022-07-18T13:16:38;3.25;;;1.00;;
66353;SDS011;53150;48.296;16.452;2022-07-18T13:19:05;2.92;;;1.05;;
66353;SDS011;53150;48.296;16.452;2022-07-18T13:21:31;3.60;;;1.20;;
66353;SDS011;53150;48.296;16.452;2022-07-18T13:23:57;3.17;;;0.85;;
66353;SDS011;53150;48.296;16.452;2022-07-18T13:26:23;4.03;;;0.90;;
66353;SDS011;53150;48.296;16.452;2022-07-18T13:28:49;3.45;;;1.00;;
66353;SDS011;53150;48.296;16.452;2022-07-18T13:31:15;3.47;;;1.00;;
66353;SDS011;53150;48.296;16.452;2022-07-18T13:33:41;3.55;;;0.90;;
66353;SDS011;53150;48.296;16.452;2022-07-18T13:36:07;3.10;;;1.02;;
66353;SDS011;53150;48.296;16.452;2022-07-18T13:38:33;3.38;;;0.95;;
66353;SDS011;53150;48.296;16.452;2022-07-18T13:40:59;3.40;;;1.17;;
66353;SDS011;53150;48.296;16.452;2022-07-18T13:43:25;3.10;;;0.90;;
66353;SDS011;53150;48.296;16.452;2022-07-18T13:45:51;2.70;;;1.00;;
66353;SDS011;53150;48.296;16.452;2022-07-18T13:48:17;2.42;;;0.90;;
66353;SDS011;53150;48.296;16.452;2022-07-18T13:50:43;2.38;;;0.90;;
66353;SDS011;53150;48.296;16.452;2022-07-18T13:53:09;3.75;;;1.00;;
66353;SDS011;53150;48.296;16.452;2022-07-18T13:55:35;7.13;;;1.83;;
66353;SDS011;53150;48.296;16.452;2022-07-18T13:58:01;8.02;;;1.90;;
66353;SDS011;53150;48.296;16.452;2022-07-18T14:00:27;3.80;;;0.88;;
66353;SDS011;53150;48.296;16.452;2022-07-18T14:02:53;6.18;;;1.40;;
66353;SDS011;53150;48.296;16.452;2022-07-18T14:05:19;2.83;;;1.05;;
66353;SDS011;53150;48.296;16.452;2022-07-18T14:07:45;2.75;;;1.00;;
66353;SDS011;53150;48.296;16.452;2022-07-18T14:10:13;3.50;;;0.95;;
66353;SDS011;53150;48.296;16.452;2022-07-18T14:12:40;2.13;;;0.80;;
66353;SDS011;53150;48.296;16.452;2022-07-18T14:15:06;5.15;;;1.10;;
66353;SDS011;53150;48.296;16.452;2022-07-18T14:17:32;3.70;;;1.02;;
66353;SDS011;53150;48.296;16.452;2022-07-18T14:19:58;2.30;;;1.10;;
66353;SDS011;53150;48.296;16.452;2022-07-18T14:22:25;4.40;;;0.95;;
66353;SDS011;53150;48.296;16.452;2022-07-18T14:24:51;3.25;;;0.90;;
66353;SDS011;53150;48.296;16.452;2022-07-18T14:27:17;4.57;;;1.42;;
66353;SDS011;53150;48.296;16.452;2022-07-18T14:29:43;2.83;;;1.02;;
66353;SDS011;53150;48.296;16.452;2022-07-18T14:32:09;2.55;;;0.73;;
66353;SDS011;53150;48.296;16.452;2022-07-18T14:34:35;3.28;;;1.25;;
66353;SDS011;53150;48.296;16.452;2022-07-18T14:37:01;3.05;;;0.90;;
66353;SDS011;53150;48.296;16.452;2022-07-18T14:39:27;6.03;;;1.10;;
66353;SDS011;53150;48.296;16.452;2022-07-18T14:41:53;4.13;;;1.30;;
66353;SDS011;53150;48.296;16.452;2022-07-18T14:44:19;3.90;;;1.20;;
66353;SDS011;53150;48.296;16.452;2022-07-18T14:46:45;6.18;;;1.20;;
66353;SDS011;53150;48.296;16.452;2022-07-18T14:49:11;5.03;;;1.33;;
66353;SDS011;53150;48.296;16.452;2022-07-18T14:51:37;4.63;;;1.75;;
66353;SDS011;53150;48.296;16.452;2022-07-18T14:54:03;5.72;;;1.40;;
66353;SDS011;53150;48.296;16.452;2022-07-18T14:56:31;4.90;;;2.40;;
66353;SDS011;53150;48.296;16.452;2022-07-18T14:58:57;3.30;;;1.20;;